101350Z 35004KT 8000 -RA OVC005 01/01 Q1002 RWY 14 DAMP 51-100 PCT FCT 0.65=

101130Z 1012/1021 04005KT 6000 -RA OVC004 TEMPO 1012/1021 1200 RASN BR BKN012=

Aktuell METAR/TAF ESNU/UME

Källa: Luftfartsverket (aro.lfv.se)